PGUA/UAM METAR and TAF weather

Enter ICAO airport designator
Station Type Date Time Source
PGUA METAR 2019/12/10 17:56 UTC NOAA

PGUA 101756Z 10009KT 10SM SCT012 BKN025 26/23 A2985 RMK AO2A SLP099 T02600234 10260 20256 57015 $


Station Type Date Time Source
PGUA Decoded METAR 2019/12/10 17:56 UTC NOAA

Andersen, Mariana Is, Andersen Air Force Base, GU, United States (PGUA) 13-35N 144-56E 187M
Dec 10, 2019 - 12:56 PM EST / 2019.12.10 1756 UTC
Wind: from the E (100 degrees) at 10 MPH (9 KT):0
Visibility: 10 mile(s):0
Sky conditions: mostly cloudy
Temperature: 78.8 F (26.0 C)
Dew Point: 74.1 F (23.4 C)
Relative Humidity: 85%
Pressure (altimeter): 29.85 in. Hg (1010 hPa)
Pressure tendency: 0.04 inches (1.5 hPa) lower than three hours ago
ob: PGUA 101756Z 10009KT 10SM SCT012 BKN025 26/23 A2985 RMK AO2A SLP099 T02600234 10260 20256 57015
cycle: 18

Station Type Date Time Source
PGUA TAF 2019/12/10 18:10 UTC NOAA

TAF PGUA 101800Z 1018/1124 08012KT 9999 VCSH SCT025 BKN040 QNH2980INS
BECMG 1104/1105 09012G18KT 9999 NSW FEW020 QNH2982INS TX29/1100Z TN24/1019Z

Example: see airport list